sensor_id;sensor_type;location;lat;lon;timestamp;P1;durP1;ratioP1;P2;durP2;ratioP2
63398;SDS011;49533;-34.520;150.798;2023-07-29T00:02:05;0.80;;;0.70;;
63398;SDS011;49533;-34.520;150.798;2023-07-29T00:04:32;0.95;;;0.70;;
63398;SDS011;49533;-34.520;150.798;2023-07-29T00:06:59;0.82;;;0.70;;
63398;SDS011;49533;-34.520;150.798;2023-07-29T00:09:26;1.25;;;0.77;;
63398;SDS011;49533;-34.520;150.798;2023-07-29T00:11:56;1.00;;;0.90;;
63398;SDS011;49533;-34.520;150.798;2023-07-29T00:14:26;1.50;;;0.63;;
63398;SDS011;49533;-34.520;150.798;2023-07-29T00:16:53;2.10;;;0.70;;
63398;SDS011;49533;-34.520;150.798;2023-07-29T00:19:20;0.90;;;0.70;;
63398;SDS011;49533;-34.520;150.798;2023-07-29T00:21:49;1.35;;;0.80;;
63398;SDS011;49533;-34.520;150.798;2023-07-29T00:24:16;1.35;;;0.70;;
63398;SDS011;49533;-34.520;150.798;2023-07-29T00:26:43;1.02;;;0.70;;
63398;SDS011;49533;-34.520;150.798;2023-07-29T00:29:10;1.23;;;0.70;;
63398;SDS011;49533;-34.520;150.798;2023-07-29T00:31:37;1.60;;;0.60;;
63398;SDS011;49533;-34.520;150.798;2023-07-29T00:34:04;1.38;;;0.65;;
63398;SDS011;49533;-34.520;150.798;2023-07-29T00:36:31;0.75;;;0.63;;
63398;SDS011;49533;-34.520;150.798;2023-07-29T00:38:58;1.15;;;0.70;;
63398;SDS011;49533;-34.520;150.798;2023-07-29T00:41:25;0.75;;;0.50;;
63398;SDS011;49533;-34.520;150.798;2023-07-29T00:43:52;2.22;;;0.63;;
63398;SDS011;49533;-34.520;150.798;2023-07-29T00:46:19;1.63;;;1.00;;
63398;SDS011;49533;-34.520;150.798;2023-07-29T00:48:48;1.13;;;0.70;;
63398;SDS011;49533;-34.520;150.798;2023-07-29T00:51:15;0.50;;;0.50;;
63398;SDS011;49533;-34.520;150.798;2023-07-29T00:53:42;1.67;;;0.50;;
63398;SDS011;49533;-34.520;150.798;2023-07-29T00:56:10;1.98;;;0.68;;
63398;SDS011;49533;-34.520;150.798;2023-07-29T00:58:37;3.58;;;0.95;;
63398;SDS011;49533;-34.520;150.798;2023-07-29T01:01:04;0.65;;;0.50;;
63398;SDS011;49533;-34.520;150.798;2023-07-29T01:03:31;13.55;;;2.38;;
63398;SDS011;49533;-34.520;150.798;2023-07-29T01:06:01;148.75;;;10.70;;
63398;SDS011;49533;-34.520;150.798;2023-07-29T01:08:45;143.80;;;19.17;;
63398;SDS011;49533;-34.520;150.798;2023-07-29T01:11:27;97.88;;;11.27;;
63398;SDS011;49533;-34.520;150.798;2023-07-29T01:14:16;82.45;;;8.77;;
63398;SDS011;49533;-34.520;150.798;2023-07-29T01:17:08;33.90;;;4.70;;
63398;SDS011;49533;-34.520;150.798;2023-07-29T01:19:48;19.85;;;3.03;;
63398;SDS011;49533;-34.520;150.798;2023-07-29T01:22:33;7.00;;;1.70;;
63398;SDS011;49533;-34.520;150.798;2023-07-29T01:25:02;6.32;;;1.80;;
63398;SDS011;49533;-34.520;150.798;2023-07-29T01:27:30;4.30;;;0.95;;
63398;SDS011;49533;-34.520;150.798;2023-07-29T01:29:57;2.55;;;1.13;;
63398;SDS011;49533;-34.520;150.798;2023-07-29T01:32:28;5.20;;;1.23;;
63398;SDS011;49533;-34.520;150.798;2023-07-29T01:35:21;3.63;;;0.75;;
63398;SDS011;49533;-34.520;150.798;2023-07-29T01:37:55;1.60;;;0.55;;
63398;SDS011;49533;-34.520;150.798;2023-07-29T01:40:27;3.03;;;0.65;;
63398;SDS011;49533;-34.520;150.798;2023-07-29T01:42:55;1.95;;;0.88;;
63398;SDS011;49533;-34.520;150.798;2023-07-29T01:45:23;1.85;;;0.47;;
63398;SDS011;49533;-34.520;150.798;2023-07-29T01:47:51;4.22;;;0.77;;
63398;SDS011;49533;-34.520;150.798;2023-07-29T01:50:19;1.95;;;0.50;;
63398;SDS011;49533;-34.520;150.798;2023-07-29T01:52:46;1.88;;;0.47;;
63398;SDS011;49533;-34.520;150.798;2023-07-29T01:55:13;2.15;;;0.70;;
63398;SDS011;49533;-34.520;150.798;2023-07-29T01:57:41;2.70;;;0.85;;
63398;SDS011;49533;-34.520;150.798;2023-07-29T02:00:10;2.70;;;0.65;;
63398;SDS011;49533;-34.520;150.798;2023-07-29T02:02:37;1.45;;;0.80;;
63398;SDS011;49533;-34.520;150.798;2023-07-29T02:05:05;2.75;;;0.50;;
63398;SDS011;49533;-34.520;150.798;2023-07-29T02:07:32;2.10;;;0.82;;
63398;SDS011;49533;-34.520;150.798;2023-07-29T02:09:59;1.25;;;0.63;;
63398;SDS011;49533;-34.520;150.798;2023-07-29T02:12:26;2.22;;;0.60;;
63398;SDS011;49533;-34.520;150.798;2023-07-29T02:14:53;0.85;;;0.52;;
63398;SDS011;49533;-34.520;150.798;2023-07-29T02:17:20;1.80;;;0.90;;
63398;SDS011;49533;-34.520;150.798;2023-07-29T02:19:47;1.33;;;0.80;;
63398;SDS011;49533;-34.520;150.798;2023-07-29T02:22:16;0.60;;;0.60;;
63398;SDS011;49533;-34.520;150.798;2023-07-29T02:24:49;2.25;;;0.93;;
63398;SDS011;49533;-34.520;150.798;2023-07-29T02:27:16;0.98;;;0.82;;
63398;SDS011;49533;-34.520;150.798;2023-07-29T02:29:43;2.10;;;0.95;;
63398;SDS011;49533;-34.520;150.798;2023-07-29T02:32:10;2.22;;;0.98;;
63398;SDS011;49533;-34.520;150.798;2023-07-29T02:34:37;0.52;;;0.52;;
63398;SDS011;49533;-34.520;150.798;2023-07-29T02:37:04;2.03;;;0.80;;
63398;SDS011;49533;-34.520;150.798;2023-07-29T02:39:31;1.85;;;0.93;;
63398;SDS011;49533;-34.520;150.798;2023-07-29T02:41:59;1.60;;;0.80;;
63398;SDS011;49533;-34.520;150.798;2023-07-29T02:44:29;2.75;;;1.05;;
63398;SDS011;49533;-34.520;150.798;2023-07-29T02:46:56;1.73;;;1.13;;
63398;SDS011;49533;-34.520;150.798;2023-07-29T02:49:23;3.53;;;0.90;;
63398;SDS011;49533;-34.520;150.798;2023-07-29T02:51:50;2.42;;;1.00;;
63398;SDS011;49533;-34.520;150.798;2023-07-29T02:54:17;0.98;;;0.70;;
63398;SDS011;49533;-34.520;150.798;2023-07-29T02:56:44;0.73;;;0.70;;
63398;SDS011;49533;-34.520;150.798;2023-07-29T02:59:11;0.85;;;0.73;;
63398;SDS011;49533;-34.520;150.798;2023-07-29T03:01:39;1.27;;;0.60;;
63398;SDS011;49533;-34.520;150.798;2023-07-29T03:04:06;2.67;;;0.90;;
63398;SDS011;49533;-34.520;150.798;2023-07-29T03:06:33;2.78;;;0.75;;
63398;SDS011;49533;-34.520;150.798;2023-07-29T03:09:00;1.33;;;0.88;;
63398;SDS011;49533;-34.520;150.798;2023-07-29T03:11:27;4.50;;;0.90;;
63398;SDS011;49533;-34.520;150.798;2023-07-29T03:13:54;1.05;;;0.80;;
63398;SDS011;49533;-34.520;150.798;2023-07-29T03:16:22;1.77;;;1.02;;
63398;SDS011;49533;-34.520;150.798;2023-07-29T03:18:49;0.85;;;0.70;;
63398;SDS011;49533;-34.520;150.798;2023-07-29T03:21:16;1.48;;;1.00;;
63398;SDS011;49533;-34.520;150.798;2023-07-29T03:23:43;1.55;;;1.05;;
63398;SDS011;49533;-34.520;150.798;2023-07-29T03:26:11;3.17;;;1.02;;
63398;SDS011;49533;-34.520;150.798;2023-07-29T03:28:39;3.10;;;0.95;;
63398;SDS011;49533;-34.520;150.798;2023-07-29T03:31:08;4.65;;;1.02;;
63398;SDS011;49533;-34.520;150.798;2023-07-29T03:33:35;2.33;;;1.02;;
63398;SDS011;49533;-34.520;150.798;2023-07-29T03:36:03;2.15;;;1.00;;
63398;SDS011;49533;-34.520;150.798;2023-07-29T03:38:33;1.30;;;0.70;;
63398;SDS011;49533;-34.520;150.798;2023-07-29T03:41:06;2.35;;;1.00;;
63398;SDS011;49533;-34.520;150.798;2023-07-29T03:43:34;1.70;;;1.17;;
63398;SDS011;49533;-34.520;150.798;2023-07-29T03:46:01;1.20;;;0.82;;
63398;SDS011;49533;-34.520;150.798;2023-07-29T03:48:28;1.92;;;0.98;;
63398;SDS011;49533;-34.520;150.798;2023-07-29T03:50:56;2.42;;;0.68;;
63398;SDS011;49533;-34.520;150.798;2023-07-29T03:53:23;2.30;;;1.17;;
63398;SDS011;49533;-34.520;150.798;2023-07-29T03:55:51;1.58;;;0.88;;
63398;SDS011;49533;-34.520;150.798;2023-07-29T03:58:18;1.38;;;0.90;;
63398;SDS011;49533;-34.520;150.798;2023-07-29T04:00:45;2.10;;;1.00;;
63398;SDS011;49533;-34.520;150.798;2023-07-29T04:03:12;0.95;;;0.82;;
63398;SDS011;49533;-34.520;150.798;2023-07-29T04:05:39;2.22;;;0.93;;
63398;SDS011;49533;-34.520;150.798;2023-07-29T04:08:06;2.33;;;1.10;;
63398;SDS011;49533;-34.520;150.798;2023-07-29T04:10:33;2.33;;;1.48;;
63398;SDS011;49533;-34.520;150.798;2023-07-29T04:13:00;1.25;;;1.15;;
63398;SDS011;49533;-34.520;150.798;2023-07-29T04:15:27;3.88;;;1.27;;
63398;SDS011;49533;-34.520;150.798;2023-07-29T04:17:55;3.20;;;1.48;;
63398;SDS011;49533;-34.520;150.798;2023-07-29T04:20:22;2.92;;;1.30;;
63398;SDS011;49533;-34.520;150.798;2023-07-29T04:22:49;1.60;;;0.95;;
63398;SDS011;49533;-34.520;150.798;2023-07-29T04:25:16;4.05;;;1.30;;
63398;SDS011;49533;-34.520;150.798;2023-07-29T04:27:44;1.55;;;0.93;;
63398;SDS011;49533;-34.520;150.798;2023-07-29T04:30:11;1.52;;;1.10;;
63398;SDS011;49533;-34.520;150.798;2023-07-29T04:32:39;2.33;;;1.20;;
63398;SDS011;49533;-34.520;150.798;2023-07-29T04:35:08;1.67;;;1.23;;
63398;SDS011;49533;-34.520;150.798;2023-07-29T04:37:35;1.63;;;1.35;;
63398;SDS011;49533;-34.520;150.798;2023-07-29T04:40:02;1.48;;;1.10;;
63398;SDS011;49533;-34.520;150.798;2023-07-29T04:42:29;3.45;;;1.40;;
63398;SDS011;49533;-34.520;150.798;2023-07-29T04:44:56;3.22;;;1.45;;
63398;SDS011;49533;-34.520;150.798;2023-07-29T04:47:23;3.22;;;1.15;;
63398;SDS011;49533;-34.520;150.798;2023-07-29T04:49:50;3.00;;;1.50;;
63398;SDS011;49533;-34.520;150.798;2023-07-29T04:52:17;2.40;;;1.55;;
63398;SDS011;49533;-34.520;150.798;2023-07-29T04:54:45;3.72;;;1.70;;
63398;SDS011;49533;-34.520;150.798;2023-07-29T04:57:12;3.03;;;1.73;;
63398;SDS011;49533;-34.520;150.798;2023-07-29T04:59:39;1.60;;;1.20;;
63398;SDS011;49533;-34.520;150.798;2023-07-29T05:02:06;4.70;;;1.63;;
63398;SDS011;49533;-34.520;150.798;2023-07-29T05:04:33;2.75;;;1.40;;
63398;SDS011;49533;-34.520;150.798;2023-07-29T05:07:00;2.65;;;1.50;;
63398;SDS011;49533;-34.520;150.798;2023-07-29T05:09:27;2.35;;;1.20;;
63398;SDS011;49533;-34.520;150.798;2023-07-29T05:11:55;2.65;;;1.52;;
63398;SDS011;49533;-34.520;150.798;2023-07-29T05:14:22;1.92;;;1.40;;
63398;SDS011;49533;-34.520;150.798;2023-07-29T05:16:49;3.15;;;1.73;;
63398;SDS011;49533;-34.520;150.798;2023-07-29T05:19:16;2.55;;;1.35;;
63398;SDS011;49533;-34.520;150.798;2023-07-29T05:21:43;1.65;;;1.48;;
63398;SDS011;49533;-34.520;150.798;2023-07-29T05:24:10;3.30;;;1.40;;
63398;SDS011;49533;-34.520;150.798;2023-07-29T05:26:37;2.50;;;1.75;;
63398;SDS011;49533;-34.520;150.798;2023-07-29T05:29:04;1.42;;;1.33;;
63398;SDS011;49533;-34.520;150.798;2023-07-29T05:31:32;1.95;;;1.35;;
63398;SDS011;49533;-34.520;150.798;2023-07-29T05:34:00;2.75;;;1.30;;
63398;SDS011;49533;-34.520;150.798;2023-07-29T05:36:27;1.42;;;1.20;;
63398;SDS011;49533;-34.520;150.798;2023-07-29T05:38:54;2.25;;;1.45;;
63398;SDS011;49533;-34.520;150.798;2023-07-29T05:41:22;2.53;;;1.30;;
63398;SDS011;49533;-34.520;150.798;2023-07-29T05:43:49;2.38;;;1.63;;
63398;SDS011;49533;-34.520;150.798;2023-07-29T05:46:16;4.68;;;2.17;;
63398;SDS011;49533;-34.520;150.798;2023-07-29T05:48:43;1.98;;;1.58;;
63398;SDS011;49533;-34.520;150.798;2023-07-29T05:51:10;2.40;;;1.48;;
63398;SDS011;49533;-34.520;150.798;2023-07-29T05:53:37;2.42;;;1.50;;
63398;SDS011;49533;-34.520;150.798;2023-07-29T05:56:04;3.53;;;1.80;;
63398;SDS011;49533;-34.520;150.798;2023-07-29T05:58:32;3.20;;;1.75;;
63398;SDS011;49533;-34.520;150.798;2023-07-29T06:00:59;2.55;;;1.90;;
63398;SDS011;49533;-34.520;150.798;2023-07-29T06:03:26;2.13;;;1.02;;
63398;SDS011;49533;-34.520;150.798;2023-07-29T06:05:53;2.78;;;1.55;;
63398;SDS011;49533;-34.520;150.798;2023-07-29T06:08:21;2.15;;;1.40;;
63398;SDS011;49533;-34.520;150.798;2023-07-29T06:10:48;3.10;;;2.03;;
63398;SDS011;49533;-34.520;150.798;2023-07-29T06:13:15;2.28;;;1.75;;
63398;SDS011;49533;-34.520;150.798;2023-07-29T06:15:42;4.53;;;1.48;;
63398;SDS011;49533;-34.520;150.798;2023-07-29T06:18:09;2.30;;;1.70;;
63398;SDS011;49533;-34.520;150.798;2023-07-29T06:20:37;1.70;;;1.52;;
63398;SDS011;49533;-34.520;150.798;2023-07-29T06:23:04;2.78;;;1.50;;
63398;SDS011;49533;-34.520;150.798;2023-07-29T06:25:31;2.00;;;1.40;;
63398;SDS011;49533;-34.520;150.798;2023-07-29T06:27:58;3.13;;;1.52;;
63398;SDS011;49533;-34.520;150.798;2023-07-29T06:30:25;5.28;;;1.88;;
63398;SDS011;49533;-34.520;150.798;2023-07-29T06:32:52;2.20;;;1.40;;
63398;SDS011;49533;-34.520;150.798;2023-07-29T06:35:20;3.72;;;1.75;;
63398;SDS011;49533;-34.520;150.798;2023-07-29T06:37:48;2.20;;;1.67;;
63398;SDS011;49533;-34.520;150.798;2023-07-29T06:40:15;2.40;;;1.88;;
63398;SDS011;49533;-34.520;150.798;2023-07-29T06:42:42;4.25;;;2.08;;
63398;SDS011;49533;-34.520;150.798;2023-07-29T06:45:10;3.70;;;1.63;;
63398;SDS011;49533;-34.520;150.798;2023-07-29T06:47:37;2.55;;;1.73;;
63398;SDS011;49533;-34.520;150.798;2023-07-29T06:50:04;3.75;;;1.70;;
63398;SDS011;49533;-34.520;150.798;2023-07-29T06:52:32;3.70;;;1.98;;
63398;SDS011;49533;-34.520;150.798;2023-07-29T06:54:59;5.63;;;2.03;;
63398;SDS011;49533;-34.520;150.798;2023-07-29T06:57:26;2.20;;;1.60;;
63398;SDS011;49533;-34.520;150.798;2023-07-29T06:59:53;2.33;;;1.90;;
63398;SDS011;49533;-34.520;150.798;2023-07-29T07:02:20;5.95;;;2.33;;
63398;SDS011;49533;-34.520;150.798;2023-07-29T07:04:47;3.45;;;2.13;;
63398;SDS011;49533;-34.520;150.798;2023-07-29T07:07:14;4.43;;;2.33;;
63398;SDS011;49533;-34.520;150.798;2023-07-29T07:09:42;4.57;;;2.30;;
63398;SDS011;49533;-34.520;150.798;2023-07-29T07:12:09;5.40;;;2.60;;
63398;SDS011;49533;-34.520;150.798;2023-07-29T07:14:37;3.38;;;2.40;;
63398;SDS011;49533;-34.520;150.798;2023-07-29T07:17:04;3.75;;;2.10;;
63398;SDS011;49533;-34.520;150.798;2023-07-29T07:19:32;4.10;;;2.40;;
63398;SDS011;49533;-34.520;150.798;2023-07-29T07:21:59;9.55;;;2.38;;
63398;SDS011;49533;-34.520;150.798;2023-07-29T07:24:26;3.50;;;2.10;;
63398;SDS011;49533;-34.520;150.798;2023-07-29T07:26:53;5.20;;;2.58;;
63398;SDS011;49533;-34.520;150.798;2023-07-29T07:29:20;4.50;;;1.70;;
63398;SDS011;49533;-34.520;150.798;2023-07-29T07:31:51;4.15;;;2.65;;
63398;SDS011;49533;-34.520;150.798;2023-07-29T07:34:19;3.72;;;2.20;;
63398;SDS011;49533;-34.520;150.798;2023-07-29T07:36:47;4.30;;;2.22;;
63398;SDS011;49533;-34.520;150.798;2023-07-29T07:39:14;4.75;;;2.50;;
63398;SDS011;49533;-34.520;150.798;2023-07-29T07:41:42;4.95;;;2.75;;
63398;SDS011;49533;-34.520;150.798;2023-07-29T07:44:10;3.80;;;2.38;;
63398;SDS011;49533;-34.520;150.798;2023-07-29T07:46:41;3.80;;;2.53;;
63398;SDS011;49533;-34.520;150.798;2023-07-29T07:49:08;3.97;;;2.33;;
63398;SDS011;49533;-34.520;150.798;2023-07-29T07:51:35;4.20;;;2.58;;
63398;SDS011;49533;-34.520;150.798;2023-07-29T07:54:02;3.88;;;2.42;;
63398;SDS011;49533;-34.520;150.798;2023-07-29T07:56:29;2.97;;;2.38;;
63398;SDS011;49533;-34.520;150.798;2023-07-29T07:58:56;3.85;;;2.85;;
63398;SDS011;49533;-34.520;150.798;2023-07-29T08:01:23;4.35;;;2.55;;
63398;SDS011;49533;-34.520;150.798;2023-07-29T08:03:50;3.33;;;2.58;;
63398;SDS011;49533;-34.520;150.798;2023-07-29T08:06:17;4.20;;;2.60;;
63398;SDS011;49533;-34.520;150.798;2023-07-29T08:08:44;2.95;;;2.60;;
63398;SDS011;49533;-34.520;150.798;2023-07-29T08:11:11;4.47;;;2.80;;
63398;SDS011;49533;-34.520;150.798;2023-07-29T08:13:39;4.85;;;2.80;;
63398;SDS011;49533;-34.520;150.798;2023-07-29T08:16:06;4.00;;;2.58;;
63398;SDS011;49533;-34.520;150.798;2023-07-29T08:18:33;2.38;;;2.00;;
63398;SDS011;49533;-34.520;150.798;2023-07-29T08:21:01;3.25;;;2.33;;
63398;SDS011;49533;-34.520;150.798;2023-07-29T08:23:29;4.18;;;2.47;;
63398;SDS011;49533;-34.520;150.798;2023-07-29T08:25:58;3.75;;;2.40;;
63398;SDS011;49533;-34.520;150.798;2023-07-29T08:28:28;3.10;;;2.58;;
63398;SDS011;49533;-34.520;150.798;2023-07-29T08:30:56;3.00;;;2.67;;
63398;SDS011;49533;-34.520;150.798;2023-07-29T08:33:23;4.00;;;2.17;;
63398;SDS011;49533;-34.520;150.798;2023-07-29T08:35:51;3.72;;;2.35;;
63398;SDS011;49533;-34.520;150.798;2023-07-29T08:38:18;4.60;;;2.22;;
63398;SDS011;49533;-34.520;150.798;2023-07-29T08:40:49;3.13;;;2.38;;
63398;SDS011;49533;-34.520;150.798;2023-07-29T08:43:28;2.30;;;2.10;;
63398;SDS011;49533;-34.520;150.798;2023-07-29T08:45:58;3.40;;;2.10;;
63398;SDS011;49533;-34.520;150.798;2023-07-29T08:48:32;2.40;;;1.98;;
63398;SDS011;49533;-34.520;150.798;2023-07-29T08:51:08;3.30;;;2.10;;
63398;SDS011;49533;-34.520;150.798;2023-07-29T08:53:37;2.92;;;2.00;;
63398;SDS011;49533;-34.520;150.798;2023-07-29T08:56:05;2.78;;;2.40;;
63398;SDS011;49533;-34.520;150.798;2023-07-29T08:58:33;4.53;;;2.17;;
63398;SDS011;49533;-34.520;150.798;2023-07-29T09:01:01;3.22;;;2.30;;
63398;SDS011;49533;-34.520;150.798;2023-07-29T09:03:28;4.85;;;2.78;;
63398;SDS011;49533;-34.520;150.798;2023-07-29T09:05:55;4.22;;;2.60;;
63398;SDS011;49533;-34.520;150.798;2023-07-29T09:08:27;4.18;;;2.60;;
63398;SDS011;49533;-34.520;150.798;2023-07-29T09:10:54;6.05;;;2.65;;
63398;SDS011;49533;-34.520;150.798;2023-07-29T09:13:22;2.75;;;2.50;;
63398;SDS011;49533;-34.520;150.798;2023-07-29T09:15:54;3.03;;;2.25;;
63398;SDS011;49533;-34.520;150.798;2023-07-29T09:18:23;4.75;;;2.13;;
63398;SDS011;49533;-34.520;150.798;2023-07-29T09:20:52;3.45;;;1.92;;
63398;SDS011;49533;-34.520;150.798;2023-07-29T09:23:20;3.20;;;2.22;;
63398;SDS011;49533;-34.520;150.798;2023-07-29T09:25:47;2.63;;;2.28;;
63398;SDS011;49533;-34.520;150.798;2023-07-29T09:28:15;3.67;;;2.40;;
63398;SDS011;49533;-34.520;150.798;2023-07-29T09:30:45;2.97;;;2.08;;
63398;SDS011;49533;-34.520;150.798;2023-07-29T09:33:12;3.63;;;2.47;;
63398;SDS011;49533;-34.520;150.798;2023-07-29T09:35:40;2.63;;;1.92;;
63398;SDS011;49533;-34.520;150.798;2023-07-29T09:38:07;2.95;;;2.03;;
63398;SDS011;49533;-34.520;150.798;2023-07-29T09:40:41;3.70;;;2.20;;
63398;SDS011;49533;-34.520;150.798;2023-07-29T09:43:10;1.98;;;1.77;;
63398;SDS011;49533;-34.520;150.798;2023-07-29T09:45:37;3.83;;;2.20;;
63398;SDS011;49533;-34.520;150.798;2023-07-29T09:48:05;3.58;;;2.05;;
63398;SDS011;49533;-34.520;150.798;2023-07-29T09:50:36;2.42;;;2.13;;
63398;SDS011;49533;-34.520;150.798;2023-07-29T09:53:03;2.63;;;1.90;;
63398;SDS011;49533;-34.520;150.798;2023-07-29T09:55:32;2.90;;;2.20;;
63398;SDS011;49533;-34.520;150.798;2023-07-29T09:58:00;2.25;;;2.05;;
63398;SDS011;49533;-34.520;150.798;2023-07-29T10:00:30;2.55;;;2.05;;
63398;SDS011;49533;-34.520;150.798;2023-07-29T10:02:58;3.28;;;2.05;;
63398;SDS011;49533;-34.520;150.798;2023-07-29T10:05:26;3.28;;;2.20;;
63398;SDS011;49533;-34.520;150.798;2023-07-29T10:07:53;2.83;;;2.25;;
63398;SDS011;49533;-34.520;150.798;2023-07-29T10:10:21;2.65;;;2.20;;
63398;SDS011;49533;-34.520;150.798;2023-07-29T10:12:48;2.47;;;2.00;;
63398;SDS011;49533;-34.520;150.798;2023-07-29T10:15:16;2.38;;;2.10;;
63398;SDS011;49533;-34.520;150.798;2023-07-29T10:17:44;3.83;;;1.67;;
63398;SDS011;49533;-34.520;150.798;2023-07-29T10:20:12;3.08;;;2.08;;
63398;SDS011;49533;-34.520;150.798;2023-07-29T10:22:41;3.83;;;2.22;;
63398;SDS011;49533;-34.520;150.798;2023-07-29T10:25:17;2.72;;;1.88;;
63398;SDS011;49533;-34.520;150.798;2023-07-29T10:27:59;1.77;;;1.60;;
63398;SDS011;49533;-34.520;150.798;2023-07-29T10:30:31;2.77;;;1.70;;
63398;SDS011;49533;-34.520;150.798;2023-07-29T10:33:04;1.98;;;1.45;;
63398;SDS011;49533;-34.520;150.798;2023-07-29T10:35:32;2.38;;;1.90;;
63398;SDS011;49533;-34.520;150.798;2023-07-29T10:38:00;1.92;;;1.30;;
63398;SDS011;49533;-34.520;150.798;2023-07-29T10:43:24;2.20;;;1.70;;
63398;SDS011;49533;-34.520;150.798;2023-07-29T10:45:52;1.73;;;1.63;;
63398;SDS011;49533;-34.520;150.798;2023-07-29T10:53:56;3.07;;;1.50;;
63398;SDS011;49533;-34.520;150.798;2023-07-29T10:56:27;2.42;;;2.15;;
63398;SDS011;49533;-34.520;150.798;2023-07-29T10:59:53;2.25;;;1.60;;
63398;SDS011;49533;-34.520;150.798;2023-07-29T11:01:58;4.10;;;2.25;;
63398;SDS011;49533;-34.520;150.798;2023-07-29T11:04:27;2.08;;;1.52;;
63398;SDS011;49533;-34.520;150.798;2023-07-29T11:09:53;3.67;;;1.75;;
63398;SDS011;49533;-34.520;150.798;2023-07-29T11:15:13;1.52;;;1.20;;
63398;SDS011;49533;-34.520;150.798;2023-07-29T11:17:50;1.75;;;1.58;;
63398;SDS011;49533;-34.520;150.798;2023-07-29T11:20:20;1.67;;;1.40;;
63398;SDS011;49533;-34.520;150.798;2023-07-29T11:22:50;2.00;;;1.30;;
63398;SDS011;49533;-34.520;150.798;2023-07-29T11:25:18;1.63;;;1.30;;
63398;SDS011;49533;-34.520;150.798;2023-07-29T11:27:47;2.00;;;1.50;;
63398;SDS011;49533;-34.520;150.798;2023-07-29T11:30:15;1.40;;;1.30;;
63398;SDS011;49533;-34.520;150.798;2023-07-29T11:32:43;1.63;;;1.50;;
63398;SDS011;49533;-34.520;150.798;2023-07-29T11:35:12;1.85;;;1.65;;
63398;SDS011;49533;-34.520;150.798;2023-07-29T11:37:44;2.80;;;1.50;;
63398;SDS011;49533;-34.520;150.798;2023-07-29T11:40:14;1.23;;;1.13;;
63398;SDS011;49533;-34.520;150.798;2023-07-29T11:42:42;2.58;;;1.40;;
63398;SDS011;49533;-34.520;150.798;2023-07-29T11:45:10;1.25;;;1.10;;
63398;SDS011;49533;-34.520;150.798;2023-07-29T11:47:38;1.67;;;1.02;;
63398;SDS011;49533;-34.520;150.798;2023-07-29T11:50:07;1.45;;;1.30;;
63398;SDS011;49533;-34.520;150.798;2023-07-29T11:52:36;1.58;;;1.20;;
63398;SDS011;49533;-34.520;150.798;2023-07-29T11:55:06;1.85;;;1.33;;
63398;SDS011;49533;-34.520;150.798;2023-07-29T11:57:35;2.03;;;1.50;;
63398;SDS011;49533;-34.520;150.798;2023-07-29T12:00:04;1.20;;;1.10;;
63398;SDS011;49533;-34.520;150.798;2023-07-29T12:02:33;2.88;;;1.73;;
63398;SDS011;49533;-34.520;150.798;2023-07-29T12:05:03;1.55;;;0.98;;
63398;SDS011;49533;-34.520;150.798;2023-07-29T12:07:31;1.77;;;1.30;;
63398;SDS011;49533;-34.520;150.798;2023-07-29T12:10:00;1.50;;;1.20;;
63398;SDS011;49533;-34.520;150.798;2023-07-29T12:12:29;1.85;;;1.23;;
63398;SDS011;49533;-34.520;150.798;2023-07-29T12:14:56;1.25;;;1.15;;
63398;SDS011;49533;-34.520;150.798;2023-07-29T12:17:23;1.67;;;1.30;;
63398;SDS011;49533;-34.520;150.798;2023-07-29T12:19:53;1.00;;;0.88;;
63398;SDS011;49533;-34.520;150.798;2023-07-29T12:22:21;2.05;;;1.50;;
63398;SDS011;49533;-34.520;150.798;2023-07-29T12:24:50;1.40;;;1.13;;
63398;SDS011;49533;-34.520;150.798;2023-07-29T12:27:19;0.80;;;0.80;;
63398;SDS011;49533;-34.520;150.798;2023-07-29T12:29:48;0.90;;;0.82;;
63398;SDS011;49533;-34.520;150.798;2023-07-29T12:32:19;1.92;;;1.13;;
63398;SDS011;49533;-34.520;150.798;2023-07-29T12:34:46;2.47;;;1.00;;
63398;SDS011;49533;-34.520;150.798;2023-07-29T12:37:13;1.40;;;1.10;;
63398;SDS011;49533;-34.520;150.798;2023-07-29T12:39:40;1.63;;;1.20;;
63398;SDS011;49533;-34.520;150.798;2023-07-29T12:42:08;1.40;;;1.30;;
63398;SDS011;49533;-34.520;150.798;2023-07-29T12:44:35;2.05;;;1.35;;
63398;SDS011;49533;-34.520;150.798;2023-07-29T12:47:04;1.02;;;0.90;;
63398;SDS011;49533;-34.520;150.798;2023-07-29T12:49:34;1.40;;;1.30;;
63398;SDS011;49533;-34.520;150.798;2023-07-29T12:52:01;1.10;;;1.00;;
63398;SDS011;49533;-34.520;150.798;2023-07-29T12:54:28;1.10;;;1.00;;
63398;SDS011;49533;-34.520;150.798;2023-07-29T12:56:56;1.30;;;1.05;;
63398;SDS011;49533;-34.520;150.798;2023-07-29T12:59:23;1.38;;;1.20;;
63398;SDS011;49533;-34.520;150.798;2023-07-29T13:01:51;1.58;;;1.30;;
63398;SDS011;49533;-34.520;150.798;2023-07-29T13:04:18;1.13;;;1.00;;
63398;SDS011;49533;-34.520;150.798;2023-07-29T13:06:45;1.00;;;1.00;;
63398;SDS011;49533;-34.520;150.798;2023-07-29T13:09:12;2.38;;;1.13;;
63398;SDS011;49533;-34.520;150.798;2023-07-29T13:11:39;2.15;;;1.10;;
63398;SDS011;49533;-34.520;150.798;2023-07-29T13:14:06;1.08;;;0.85;;
63398;SDS011;49533;-34.520;150.798;2023-07-29T13:16:33;2.13;;;1.50;;
63398;SDS011;49533;-34.520;150.798;2023-07-29T13:19:00;1.20;;;1.15;;
63398;SDS011;49533;-34.520;150.798;2023-07-29T13:21:27;1.38;;;1.27;;
63398;SDS011;49533;-34.520;150.798;2023-07-29T13:23:54;2.75;;;1.52;;
63398;SDS011;49533;-34.520;150.798;2023-07-29T13:26:21;1.15;;;1.00;;
63398;SDS011;49533;-34.520;150.798;2023-07-29T13:28:48;1.23;;;1.10;;
63398;SDS011;49533;-34.520;150.798;2023-07-29T13:31:15;1.30;;;1.20;;
63398;SDS011;49533;-34.520;150.798;2023-07-29T13:33:42;3.28;;;1.20;;
63398;SDS011;49533;-34.520;150.798;2023-07-29T13:36:09;1.50;;;1.40;;
63398;SDS011;49533;-34.520;150.798;2023-07-29T13:38:36;1.17;;;1.10;;
63398;SDS011;49533;-34.520;150.798;2023-07-29T13:41:03;2.65;;;1.75;;
63398;SDS011;49533;-34.520;150.798;2023-07-29T13:43:31;2.42;;;1.48;;
63398;SDS011;49533;-34.520;150.798;2023-07-29T13:45:58;1.60;;;1.50;;
63398;SDS011;49533;-34.520;150.798;2023-07-29T13:48:25;1.30;;;1.20;;
63398;SDS011;49533;-34.520;150.798;2023-07-29T13:50:52;1.10;;;1.10;;
63398;SDS011;49533;-34.520;150.798;2023-07-29T13:53:19;2.05;;;1.70;;
63398;SDS011;49533;-34.520;150.798;2023-07-29T13:55:46;2.08;;;1.58;;
63398;SDS011;49533;-34.520;150.798;2023-07-29T13:58:14;1.50;;;1.40;;
63398;SDS011;49533;-34.520;150.798;2023-07-29T14:00:41;1.17;;;1.10;;
63398;SDS011;49533;-34.520;150.798;2023-07-29T14:03:08;1.50;;;1.20;;
63398;SDS011;49533;-34.520;150.798;2023-07-29T14:05:35;1.95;;;1.48;;
63398;SDS011;49533;-34.520;150.798;2023-07-29T14:08:02;1.80;;;1.67;;
63398;SDS011;49533;-34.520;150.798;2023-07-29T14:10:29;1.65;;;1.55;;
63398;SDS011;49533;-34.520;150.798;2023-07-29T14:12:56;1.40;;;1.30;;
63398;SDS011;49533;-34.520;150.798;2023-07-29T14:15:23;1.50;;;1.40;;
63398;SDS011;49533;-34.520;150.798;2023-07-29T14:17:50;1.67;;;1.58;;
63398;SDS011;49533;-34.520;150.798;2023-07-29T14:20:17;1.45;;;1.38;;
63398;SDS011;49533;-34.520;150.798;2023-07-29T14:22:45;2.13;;;1.38;;
63398;SDS011;49533;-34.520;150.798;2023-07-29T14:25:12;2.05;;;1.40;;
63398;SDS011;49533;-34.520;150.798;2023-07-29T14:27:40;1.58;;;1.35;;
63398;SDS011;49533;-34.520;150.798;2023-07-29T14:30:07;3.85;;;2.05;;